Time;durP1;ratioP1;P1;durP2;ratioP2;P2;SDS_P1;SDS_P2;PMS_P1;PMS_P2;Temp;Humidity;BMP_temperature;BMP_pressure;BME280_temperature;BME280_humidity;BME280_pressure;Samples;Min_cycle;Max_cycle;Signal;HPM_P1;HPM_P2
2022/10/13 00:00:45;;;;;;;10.30;7.57;;;10.80;99.90;;;;;;4993637;28;20412;-75
2022/10/13 00:03:10;;;;;;;14.30;7.80;;;10.90;99.90;;;;;;4993226;28;20420;-73
2022/10/13 00:05:41;;;;;;;17.30;8.07;;;10.90;99.90;;;;;;4994386;28;20416;-73
2022/10/13 00:08:07;;;;;;;10.40;6.33;;;10.90;99.90;;;;;;4994786;28;20185;-73
2022/10/13 00:10:36;;;;;;;17.30;8.27;;;10.90;99.90;;;;;;4994525;28;20407;-73
2022/10/13 00:13:02;;;;;;;15.00;7.13;;;10.90;99.90;;;;;;4994736;28;20544;-73
2022/10/13 00:15:28;;;;;;;14.93;7.20;;;10.90;99.90;;;;;;4975624;28;20429;-73
2022/10/13 00:17:54;;;;;;;15.60;8.40;;;10.90;99.90;;;;;;4974976;28;20498;-73
2022/10/13 00:20:19;;;;;;;17.57;5.93;;;11.00;99.90;;;;;;4975754;28;20178;-74
2022/10/13 00:22:45;;;;;;;13.40;7.67;;;10.90;99.90;;;;;;4975854;28;20419;-74
2022/10/13 00:25:10;;;;;;;11.77;7.10;;;10.90;99.90;;;;;;4992168;28;20197;-74
2022/10/13 00:27:36;;;;;;;15.30;7.77;;;11.00;99.90;;;;;;4994149;28;20205;-72
2022/10/13 00:30:02;;;;;;;11.50;6.93;;;10.90;99.90;;;;;;4995186;28;20177;-75
2022/10/13 00:32:28;;;;;;;20.53;10.90;;;11.00;99.90;;;;;;4995060;28;20206;-73
2022/10/13 00:34:55;;;;;;;9.17;6.43;;;11.00;99.90;;;;;;4993421;28;20428;-73
2022/10/13 00:37:20;;;;;;;9.83;6.87;;;11.00;99.90;;;;;;4993277;28;20494;-73
2022/10/13 00:39:46;;;;;;;7.70;6.00;;;11.00;99.90;;;;;;4994724;28;20483;-76
2022/10/13 00:42:12;;;;;;;15.03;7.40;;;11.00;99.90;;;;;;4995644;28;20541;-74
2022/10/13 00:44:59;;;;;;;10.33;6.67;;;11.00;99.90;;;;;;4984680;28;20181;-75
2022/10/13 00:47:45;;;;;;;11.33;6.67;;;11.00;99.90;;;;;;4974566;28;20568;-73
2022/10/13 00:50:15;;;;;;;14.23;7.17;;;10.90;99.90;;;;;;4990475;28;20471;-73
2022/10/13 00:52:41;;;;;;;12.00;6.33;;;10.90;99.90;;;;;;4975375;28;20470;-72
2022/10/13 00:55:09;;;;;;;10.00;6.40;;;11.00;99.90;;;;;;5006822;28;20795;-73
2022/10/13 00:57:38;;;;;;;13.27;6.57;;;10.90;99.90;;;;;;4994747;28;20599;-75
2022/10/13 01:00:05;;;;;;;11.40;7.40;;;11.00;99.90;;;;;;4993891;28;20404;-73
2022/10/13 01:02:35;;;;;;;11.83;6.90;;;10.90;99.90;;;;;;4993461;28;20422;-72
2022/10/13 01:05:02;;;;;;;13.13;8.30;;;11.00;99.90;;;;;;4976749;28;20786;-73
2022/10/13 01:07:28;;;;;;;17.07;7.60;;;11.00;99.90;;;;;;4974249;28;20525;-73
2022/10/13 01:09:54;;;;;;;10.70;6.87;;;11.00;99.90;;;;;;4973088;28;20511;-73
2022/10/13 01:12:22;;;;;;;8.90;5.70;;;11.00;99.90;;;;;;4974240;28;20190;-73
2022/10/13 01:14:56;;;;;;;16.23;6.90;;;11.00;99.90;;;;;;4988421;28;20455;-74
2022/10/13 01:18:06;;;;;;;9.40;5.30;;;10.90;99.90;;;;;;4995404;28;20452;-74
2022/10/13 01:21:19;;;;;;;13.57;7.47;;;11.00;99.90;;;;;;5015595;28;20568;-74
2022/10/13 01:23:55;;;;;;;11.07;6.60;;;10.80;99.90;;;;;;5017248;28;20994;-75
2022/10/13 01:26:44;;;;;;;11.50;6.30;;;10.80;99.90;;;;;;4978460;28;20755;-73
2022/10/13 01:29:28;;;;;;;12.70;6.43;;;10.80;99.90;;;;;;5007686;28;20413;-75
2022/10/13 01:31:53;;;;;;;17.00;7.00;;;10.70;99.90;;;;;;4973674;28;20401;-73
2022/10/13 01:34:51;;;;;;;8.13;5.77;;;10.70;99.90;;;;;;4984841;28;20922;-73
2022/10/13 01:37:29;;;;;;;10.77;6.63;;;10.70;99.90;;;;;;4993383;28;20196;-75
2022/10/13 01:40:00;;;;;;;9.53;6.40;;;10.70;99.90;;;;;;4995308;28;20459;-75
2022/10/13 01:42:37;;;;;;;11.13;6.50;;;10.70;99.90;;;;;;4996094;28;20405;-75
2022/10/13 01:45:03;;;;;;;10.73;5.90;;;10.80;99.90;;;;;;4977900;28;20433;-74
2022/10/13 01:47:32;;;;;;;9.60;5.87;;;10.80;99.90;;;;;;4974261;28;20527;-74
2022/10/13 01:49:59;;;;;;;9.83;5.83;;;10.80;99.90;;;;;;4975768;28;20440;-75
2022/10/13 01:52:32;;;;;;;14.93;7.30;;;10.80;99.90;;;;;;5009259;28;20506;-73
2022/10/13 01:55:06;;;;;;;12.50;8.10;;;10.80;99.90;;;;;;4991966;28;20438;-73
2022/10/13 01:57:32;;;;;;;7.73;6.20;;;10.80;99.90;;;;;;4992730;28;21035;-74
2022/10/13 02:00:03;;;;;;;9.70;5.60;;;10.80;99.90;;;;;;4992945;28;20486;-73
2022/10/13 02:03:16;;;;;;;16.47;7.50;;;10.90;99.90;;;;;;4994075;28;20424;-75
2022/10/13 02:06:04;;;;;;;8.00;5.97;;;10.90;99.90;;;;;;4991958;28;20424;-74
2022/10/13 02:08:55;;;;;;;9.63;6.73;;;10.90;99.90;;;;;;4979064;28;20522;-75
2022/10/13 02:11:21;;;;;;;11.00;6.20;;;10.90;99.90;;;;;;4992085;28;20455;-74
2022/10/13 02:14:01;;;;;;;10.83;6.10;;;10.80;99.90;;;;;;4984730;28;20937;-76
2022/10/13 02:16:30;;;;;;;8.00;5.50;;;10.80;99.90;;;;;;4995653;28;20407;-74
2022/10/13 02:18:57;;;;;;;12.00;6.60;;;10.80;99.90;;;;;;4989440;28;20461;-74
2022/10/13 02:21:23;;;;;;;13.27;5.80;;;10.80;99.90;;;;;;4976317;28;20405;-75
2022/10/13 02:23:48;;;;;;;9.47;6.60;;;10.80;99.90;;;;;;4987856;28;20408;-73
2022/10/13 02:26:14;;;;;;;10.10;6.40;;;10.80;99.90;;;;;;4992395;28;20898;-73
2022/10/13 02:28:41;;;;;;;7.53;5.63;;;10.80;99.90;;;;;;4994089;28;20235;-75
2022/10/13 02:31:09;;;;;;;9.83;6.00;;;10.80;99.90;;;;;;4994204;28;20431;-74
2022/10/13 02:33:35;;;;;;;12.13;5.90;;;10.80;99.90;;;;;;4991947;28;20796;-75
2022/10/13 02:36:00;;;;;;;7.20;4.80;;;10.80;99.90;;;;;;4975071;28;20487;-74
2022/10/13 02:38:26;;;;;;;6.70;4.63;;;10.80;99.90;;;;;;4974903;28;20201;-76
2022/10/13 02:40:53;;;;;;;9.40;6.23;;;10.80;99.90;;;;;;4975836;28;20537;-75
2022/10/13 02:43:19;;;;;;;8.90;5.67;;;10.80;99.90;;;;;;4976120;28;20572;-74
2022/10/13 02:45:44;;;;;;;8.47;5.33;;;10.70;99.90;;;;;;4993352;28;20479;-75
2022/10/13 02:48:10;;;;;;;6.50;4.97;;;10.80;99.90;;;;;;4993528;28;20196;-76
2022/10/13 02:50:35;;;;;;;8.23;5.60;;;10.80;99.90;;;;;;4993392;28;20677;-73
2022/10/13 02:53:01;;;;;;;10.03;4.40;;;10.80;99.90;;;;;;4993359;28;20177;-75
2022/10/13 02:55:26;;;;;;;11.40;6.30;;;10.80;99.90;;;;;;4977055;28;20257;-75
2022/10/13 02:57:52;;;;;;;8.57;6.07;;;10.80;99.90;;;;;;4985597;28;20283;-75
2022/10/13 03:00:19;;;;;;;9.87;5.87;;;10.90;99.90;;;;;;4993829;28;20532;-76
2022/10/13 03:02:44;;;;;;;11.63;5.33;;;10.90;99.90;;;;;;4992924;28;20448;-75
2022/10/13 03:05:10;;;;;;;8.40;5.13;;;10.90;99.90;;;;;;4989194;28;20211;-73
2022/10/13 03:07:36;;;;;;;6.93;4.37;;;10.90;99.90;;;;;;4991947;28;20283;-73
2022/10/13 03:10:02;;;;;;;10.00;5.50;;;11.00;99.90;;;;;;4992201;28;20498;-74
2022/10/13 03:12:28;;;;;;;11.20;4.80;;;11.00;99.90;;;;;;4991923;28;20647;-73
2022/10/13 03:14:53;;;;;;;10.33;5.30;;;11.00;99.90;;;;;;4979676;28;20421;-73
2022/10/13 03:17:19;;;;;;;10.53;5.50;;;11.00;99.90;;;;;;4994408;28;20251;-73
2022/10/13 03:19:44;;;;;;;11.40;4.87;;;11.00;99.90;;;;;;4995817;28;20168;-73
2022/10/13 03:22:13;;;;;;;5.93;4.97;;;11.00;99.90;;;;;;4997347;28;20173;-75
2022/10/13 03:24:38;;;;;;;8.90;4.63;;;11.10;99.90;;;;;;5002687;28;20181;-74
2022/10/13 03:27:04;;;;;;;6.40;5.17;;;11.10;99.90;;;;;;4997501;28;20501;-74
2022/10/13 03:29:29;;;;;;;7.20;4.93;;;11.10;99.90;;;;;;4997828;28;20169;-74
2022/10/13 03:31:55;;;;;;;8.23;4.67;;;11.10;99.90;;;;;;4995755;28;20180;-74
2022/10/13 03:34:20;;;;;;;10.50;5.33;;;11.00;99.90;;;;;;4989248;28;20184;-74
2022/10/13 03:36:46;;;;;;;6.80;5.20;;;11.00;99.90;;;;;;4978415;28;20658;-74
2022/10/13 03:39:12;;;;;;;7.83;4.90;;;11.00;99.90;;;;;;4978557;28;20724;-73
2022/10/13 03:41:38;;;;;;;8.70;4.97;;;11.00;99.90;;;;;;4977994;28;20170;-74
2022/10/13 03:44:04;;;;;;;8.67;5.37;;;10.90;99.90;;;;;;4983048;28;20169;-76
2022/10/13 03:46:30;;;;;;;9.83;4.70;;;10.90;99.90;;;;;;4996929;28;20168;-76
2022/10/13 03:48:56;;;;;;;8.70;4.93;;;10.90;99.90;;;;;;4996525;28;20957;-76
2022/10/13 03:51:22;;;;;;;9.43;6.13;;;10.90;99.90;;;;;;4998085;28;20439;-75
2022/10/13 03:53:49;;;;;;;8.43;7.53;;;10.90;99.90;;;;;;4994287;28;20177;-75
2022/10/13 03:56:17;;;;;;;12.17;7.17;;;10.90;99.90;;;;;;4976037;28;20433;-75
2022/10/13 03:58:43;;;;;;;10.03;6.87;;;10.90;99.90;;;;;;4989876;28;20468;-73
2022/10/13 04:01:11;;;;;;;11.63;6.27;;;10.90;99.90;;;;;;4974202;28;20421;-75
2022/10/13 04:03:36;;;;;;;12.13;6.50;;;10.90;99.90;;;;;;4977320;28;20417;-75
2022/10/13 04:06:04;;;;;;;8.97;6.13;;;10.80;99.90;;;;;;4995317;28;20431;-76
2022/10/13 04:08:32;;;;;;;10.63;6.60;;;10.90;99.90;;;;;;4995888;28;20188;-75
2022/10/13 04:11:00;;;;;;;17.13;10.20;;;10.90;99.90;;;;;;4978416;28;20417;-75
2022/10/13 04:13:26;;;;;;;9.17;6.40;;;10.90;99.90;;;;;;4977896;28;20405;-75
2022/10/13 04:15:51;;;;;;;12.40;8.07;;;10.90;99.90;;;;;;4994983;28;20420;-75
2022/10/13 04:18:17;;;;;;;12.83;6.57;;;10.80;99.90;;;;;;4996909;28;20251;-76
2022/10/13 04:20:42;;;;;;;10.83;5.60;;;10.90;99.90;;;;;;4995854;28;20868;-75
2022/10/13 04:23:08;;;;;;;12.80;6.53;;;10.90;99.90;;;;;;4995224;28;20168;-73
2022/10/13 04:25:35;;;;;;;8.43;6.13;;;10.90;99.90;;;;;;4990958;28;20161;-73
2022/10/13 04:28:02;;;;;;;10.20;7.00;;;10.90;99.90;;;;;;4994034;28;20220;-76
2022/10/13 04:30:28;;;;;;;10.23;7.63;;;10.90;99.90;;;;;;4995700;28;20463;-74
2022/10/13 04:32:54;;;;;;;13.60;6.17;;;10.80;99.90;;;;;;4996831;28;20418;-75
2022/10/13 04:35:19;;;;;;;12.63;6.90;;;10.80;99.90;;;;;;4982580;28;20432;-75
2022/10/13 04:37:45;;;;;;;13.47;7.20;;;10.80;99.90;;;;;;4976075;28;20232;-74
2022/10/13 04:40:10;;;;;;;10.70;7.40;;;10.70;99.90;;;;;;4976002;28;20224;-74
2022/10/13 04:42:36;;;;;;;12.27;8.07;;;10.70;99.90;;;;;;4975605;28;20205;-75
2022/10/13 04:45:02;;;;;;;7.93;6.63;;;10.60;99.90;;;;;;4990319;28;20573;-74
2022/10/13 04:47:28;;;;;;;11.23;6.77;;;10.70;99.90;;;;;;4995967;28;20247;-74
2022/10/13 04:49:53;;;;;;;12.50;6.83;;;10.70;99.90;;;;;;4996972;28;20439;-74
2022/10/13 04:52:19;;;;;;;12.23;6.70;;;10.70;99.90;;;;;;4995680;28;20578;-73
2022/10/13 04:54:44;;;;;;;13.00;5.87;;;10.70;99.90;;;;;;4981233;28;20212;-74
2022/10/13 04:57:10;;;;;;;9.93;6.40;;;10.70;99.90;;;;;;4976357;28;20651;-74
2022/10/13 04:59:35;;;;;;;11.00;7.13;;;10.80;99.90;;;;;;4990840;28;20177;-74
2022/10/13 05:02:02;;;;;;;11.43;7.17;;;10.70;99.90;;;;;;4991938;28;20259;-74
2022/10/13 05:04:27;;;;;;;14.30;6.93;;;10.70;99.90;;;;;;4986548;28;20177;-74
2022/10/13 05:06:53;;;;;;;12.83;8.20;;;10.80;99.90;;;;;;4975612;28;20929;-75
2022/10/13 05:09:18;;;;;;;11.83;9.00;;;10.70;99.90;;;;;;4976749;28;20184;-75
2022/10/13 05:11:44;;;;;;;9.70;6.87;;;10.70;99.90;;;;;;4975505;28;20193;-75
2022/10/13 05:14:09;;;;;;;14.80;6.23;;;10.70;99.90;;;;;;4986032;28;20178;-73
2022/10/13 05:16:35;;;;;;;12.33;7.77;;;10.60;99.90;;;;;;4974007;28;20177;-73
2022/10/13 05:19:00;;;;;;;17.20;7.87;;;10.60;99.90;;;;;;4972876;28;20243;-73
2022/10/13 05:21:27;;;;;;;6.50;5.43;;;10.70;99.90;;;;;;4974447;28;20178;-73
2022/10/13 05:23:54;;;;;;;9.13;6.50;;;10.60;99.90;;;;;;4977397;28;20188;-74
2022/10/13 05:26:27;;;;;;;12.53;6.83;;;10.60;99.90;;;;;;4995841;28;20405;-74
2022/10/13 05:28:54;;;;;;;12.63;8.03;;;10.60;99.90;;;;;;4994994;28;20442;-74
2022/10/13 05:31:23;;;;;;;12.03;6.80;;;10.60;99.90;;;;;;4996099;28;21005;-75
2022/10/13 05:33:50;;;;;;;9.20;6.80;;;10.60;99.90;;;;;;4989570;28;20961;-75
2022/10/13 05:36:18;;;;;;;21.33;7.60;;;10.60;99.90;;;;;;4974234;28;20475;-75
2022/10/13 05:38:44;;;;;;;12.63;8.10;;;10.70;99.90;;;;;;4973967;28;20467;-75
2022/10/13 05:41:13;;;;;;;10.43;5.93;;;10.60;99.90;;;;;;4974587;28;20405;-75
2022/10/13 05:43:39;;;;;;;11.43;6.37;;;10.60;99.90;;;;;;4975295;28;20602;-73
2022/10/13 05:46:05;;;;;;;12.30;7.63;;;10.60;99.90;;;;;;4993444;28;20420;-73
2022/10/13 05:48:31;;;;;;;15.17;8.17;;;10.60;99.90;;;;;;4992251;28;20489;-74
2022/10/13 05:50:59;;;;;;;12.70;7.70;;;10.60;99.90;;;;;;4993967;28;20583;-75
2022/10/13 05:53:27;;;;;;;15.17;7.97;;;10.60;99.90;;;;;;4992096;28;20184;-74
2022/10/13 05:55:55;;;;;;;13.67;7.60;;;10.60;99.90;;;;;;4973417;28;20427;-76
2022/10/13 05:58:21;;;;;;;12.40;8.53;;;10.60;99.90;;;;;;4986806;28;20502;-75
2022/10/13 06:00:47;;;;;;;14.67;7.50;;;10.60;99.90;;;;;;4994092;28;20412;-75
2022/10/13 06:03:17;;;;;;;10.47;7.00;;;10.60;99.90;;;;;;4982960;28;20417;-75
2022/10/13 06:05:46;;;;;;;15.93;8.00;;;10.50;99.90;;;;;;4991154;28;20516;-73
2022/10/13 06:08:12;;;;;;;15.67;7.00;;;10.60;99.90;;;;;;4994164;28;20508;-75
2022/10/13 06:10:39;;;;;;;15.30;8.10;;;10.60;99.90;;;;;;4994163;28;20459;-75
2022/10/13 06:13:04;;;;;;;14.60;7.77;;;10.60;99.90;;;;;;4993573;28;20455;-76
2022/10/13 06:15:30;;;;;;;13.67;9.53;;;10.60;99.90;;;;;;4976216;28;20852;-74
2022/10/13 06:17:56;;;;;;;16.83;8.30;;;10.60;99.90;;;;;;4973148;28;20281;-74
2022/10/13 06:20:21;;;;;;;12.90;8.57;;;10.60;99.90;;;;;;4973240;28;20192;-74
2022/10/13 06:22:49;;;;;;;10.70;7.70;;;10.60;99.90;;;;;;4973418;28;20173;-74
2022/10/13 06:25:14;;;;;;;11.50;7.10;;;10.60;99.90;;;;;;4988981;28;20260;-72
2022/10/13 06:27:40;;;;;;;10.33;8.47;;;10.60;99.90;;;;;;4992172;28;20522;-74
2022/10/13 06:30:06;;;;;;;18.10;7.63;;;10.60;99.90;;;;;;4992549;28;20204;-73
2022/10/13 06:32:32;;;;;;;13.80;8.33;;;10.60;99.90;;;;;;4992324;28;20196;-74
2022/10/13 06:34:58;;;;;;;13.70;7.70;;;10.70;99.90;;;;;;4978925;28;20421;-74
2022/10/13 06:37:23;;;;;;;16.13;8.60;;;10.70;99.90;;;;;;4972882;28;20276;-75
2022/10/13 06:39:49;;;;;;;17.57;7.53;;;10.80;99.90;;;;;;4972913;28;20635;-75
2022/10/13 06:42:15;;;;;;;16.80;9.27;;;10.80;99.90;;;;;;4983592;28;20590;-74
2022/10/13 06:44:41;;;;;;;16.07;9.47;;;10.80;99.90;;;;;;4981686;28;20174;-72
2022/10/13 06:47:06;;;;;;;13.23;8.50;;;10.90;99.90;;;;;;4973009;28;20785;-73
2022/10/13 06:49:32;;;;;;;17.70;11.20;;;10.90;99.90;;;;;;4973003;28;20268;-72
2022/10/13 06:51:58;;;;;;;45.60;8.93;;;11.00;99.90;;;;;;4976257;28;20467;-73
2022/10/13 06:54:23;;;;;;;13.60;8.00;;;11.00;99.90;;;;;;4983100;28;20169;-72
2022/10/13 06:56:50;;;;;;;10.50;7.30;;;11.10;99.90;;;;;;4996280;28;20196;-75
2022/10/13 06:59:15;;;;;;;17.33;9.67;;;11.20;99.90;;;;;;4996559;28;20263;-75
2022/10/13 07:01:41;;;;;;;13.07;9.03;;;11.30;99.90;;;;;;4987072;28;20464;-75
2022/10/13 07:04:06;;;;;;;18.87;11.27;;;11.40;99.90;;;;;;4978492;28;20173;-74
2022/10/13 07:06:32;;;;;;;14.20;8.10;;;11.50;99.90;;;;;;4977936;28;20232;-74
2022/10/13 07:08:57;;;;;;;14.50;8.60;;;11.60;99.90;;;;;;4978418;28;20547;-74
2022/10/13 07:11:23;;;;;;;14.40;8.13;;;11.70;99.90;;;;;;4976802;28;20635;-74
2022/10/13 07:13:48;;;;;;;13.37;8.10;;;11.80;99.90;;;;;;4992713;28;20169;-74
2022/10/13 07:16:14;;;;;;;23.83;9.60;;;11.80;99.90;;;;;;4997533;28;20172;-74
2022/10/13 07:18:40;;;;;;;14.17;8.47;;;11.90;99.90;;;;;;4997348;28;20211;-74
2022/10/13 07:21:05;;;;;;;13.47;9.30;;;12.00;99.90;;;;;;4997234;28;20169;-74
2022/10/13 07:23:31;;;;;;;12.33;8.07;;;12.10;99.90;;;;;;4992386;28;20182;-74
2022/10/13 07:25:57;;;;;;;12.27;8.80;;;12.20;99.90;;;;;;4976566;28;20265;-74
2022/10/13 07:28:23;;;;;;;19.60;9.67;;;12.20;99.90;;;;;;4978398;28;20288;-74
2022/10/13 07:30:49;;;;;;;12.03;7.97;;;12.30;99.90;;;;;;4978148;28;20193;-73
2022/10/13 07:33:14;;;;;;;13.10;8.17;;;12.40;99.90;;;;;;4978299;28;20425;-74
2022/10/13 07:35:40;;;;;;;12.00;8.20;;;12.50;99.90;;;;;;4976725;28;20233;-74
2022/10/13 07:38:07;;;;;;;13.00;7.80;;;12.60;99.90;;;;;;4988027;28;20207;-73
2022/10/13 07:40:33;;;;;;;21.43;8.50;;;12.60;99.90;;;;;;4996209;28;20177;-72
2022/10/13 07:42:59;;;;;;;13.83;8.60;;;12.60;99.90;;;;;;4995037;28;20411;-71
2022/10/13 07:45:25;;;;;;;13.20;8.13;;;12.70;99.90;;;;;;4993771;28;20726;-72
2022/10/13 07:47:50;;;;;;;19.60;8.40;;;12.80;99.90;;;;;;4987199;28;20271;-72
2022/10/13 07:50:16;;;;;;;15.37;7.93;;;12.80;99.90;;;;;;4974271;28;20663;-72
2022/10/13 07:52:41;;;;;;;14.07;9.70;;;12.80;99.90;;;;;;4974440;28;20639;-73
2022/10/13 07:55:08;;;;;;;18.67;9.43;;;13.00;99.90;;;;;;4975877;28;20180;-71
2022/10/13 07:57:33;;;;;;;18.40;8.17;;;13.00;99.90;;;;;;4980836;28;20208;-72
2022/10/13 07:59:59;;;;;;;17.03;11.13;;;13.10;99.90;;;;;;4993558;28;20420;-73
2022/10/13 08:02:25;;;;;;;15.33;9.50;;;13.20;99.90;;;;;;4993598;28;20191;-72
2022/10/13 08:04:50;;;;;;;21.57;8.90;;;13.30;99.90;;;;;;4994604;28;20165;-73
2022/10/13 08:07:16;;;;;;;17.17;8.80;;;13.40;99.90;;;;;;4986762;28;20231;-74
2022/10/13 08:09:43;;;;;;;13.63;9.53;;;13.50;99.90;;;;;;4974521;28;20257;-72
2022/10/13 08:12:09;;;;;;;11.30;7.53;;;13.70;99.90;;;;;;4975792;28;20409;-73
2022/10/13 08:14:34;;;;;;;12.63;8.13;;;13.80;99.90;;;;;;4977267;28;21169;-74
2022/10/13 08:17:00;;;;;;;10.40;8.37;;;14.00;99.90;;;;;;4993401;28;20597;-73
2022/10/13 08:19:27;;;;;;;15.30;8.60;;;14.30;99.90;;;;;;4994758;28;20161;-73
2022/10/13 08:21:53;;;;;;;14.10;8.20;;;14.60;99.90;;;;;;4993860;28;20188;-74
2022/10/13 08:24:21;;;;;;;14.33;7.90;;;14.90;99.90;;;;;;4994107;28;20400;-73
2022/10/13 08:26:48;;;;;;;12.30;7.90;;;15.10;99.90;;;;;;4991983;28;20566;-75
2022/10/13 08:29:14;;;;;;;10.10;6.50;;;15.10;99.90;;;;;;4975250;28;20413;-73
2022/10/13 08:31:40;;;;;;;12.57;7.77;;;15.20;99.90;;;;;;4975159;28;20407;-73
2022/10/13 08:34:06;;;;;;;10.07;6.93;;;15.20;99.90;;;;;;4975428;28;20405;-73
2022/10/13 08:36:32;;;;;;;11.57;8.57;;;15.30;99.90;;;;;;4974737;28;20938;-73
2022/10/13 08:38:57;;;;;;;11.33;7.00;;;15.30;99.90;;;;;;4994103;28;20543;-73
2022/10/13 08:41:30;;;;;;;9.97;7.50;;;15.40;99.90;;;;;;4993157;28;20165;-73
2022/10/13 08:44:03;;;;;;;14.23;8.30;;;15.40;99.90;;;;;;4994319;28;20161;-73
2022/10/13 08:46:38;;;;;;;13.17;8.40;;;15.50;99.90;;;;;;4993703;28;20416;-73
2022/10/13 08:49:04;;;;;;;13.13;8.20;;;15.50;99.90;;;;;;4974676;28;20547;-73
2022/10/13 08:51:30;;;;;;;15.47;7.40;;;15.60;99.90;;;;;;4974902;28;20499;-73
2022/10/13 08:53:56;;;;;;;17.80;7.40;;;15.90;99.90;;;;;;4974732;28;20488;-74
2022/10/13 08:56:26;;;;;;;10.87;7.10;;;16.30;99.90;;;;;;4974990;28;20213;-73
2022/10/13 08:58:55;;;;;;;9.93;5.83;;;16.90;99.90;;;;;;4993892;28;20204;-73
2022/10/13 09:01:34;;;;;;;8.20;6.20;;;18.00;99.90;;;;;;4994180;28;20404;-73
2022/10/13 09:04:24;;;;;;;8.40;5.20;;;19.70;99.90;;;;;;4992606;28;20415;-73
2022/10/13 09:07:00;;;;;;;10.23;5.10;;;21.30;99.90;;;;;;4987794;28;20432;-74
2022/10/13 09:09:26;;;;;;;7.60;6.30;;;22.40;99.90;;;;;;4981277;28;20421;-75
2022/10/13 09:11:51;;;;;;;8.80;5.17;;;23.00;99.90;;;;;;4990167;28;20467;-75
2022/10/13 09:14:23;;;;;;;6.57;4.37;;;23.00;99.90;;;;;;4974591;28;20202;-75
2022/10/13 09:16:50;;;;;;;7.40;5.50;;;23.10;99.90;;;;;;4977639;28;20169;-74
2022/10/13 09:19:26;;;;;;;7.97;4.37;;;22.90;99.90;;;;;;4975766;28;20858;-75
2022/10/13 09:22:12;;;;;;;7.70;3.80;;;22.40;99.90;;;;;;4976654;28;20952;-76
2022/10/13 09:24:37;;;;;;;8.17;4.40;;;21.80;99.90;;;;;;4976723;28;20424;-77
2022/10/13 09:27:13;;;;;;;5.60;3.93;;;21.60;99.90;;;;;;4982330;28;20471;-77
2022/10/13 09:29:39;;;;;;;5.63;3.90;;;21.40;99.90;;;;;;4993626;28;20260;-72
2022/10/13 09:32:15;;;;;;;5.90;4.03;;;21.50;99.90;;;;;;4993292;28;20491;-72
2022/10/13 09:34:41;;;;;;;10.43;5.13;;;21.50;99.90;;;;;;4992849;28;20420;-72
2022/10/13 09:37:19;;;;;;;9.33;4.70;;;21.50;99.90;;;;;;4984580;28;20445;-72
2022/10/13 09:39:46;;;;;;;8.07;5.40;;;21.50;99.90;;;;;;4974949;28;20192;-73
2022/10/13 09:42:19;;;;;;;6.03;4.47;;;21.50;99.90;;;;;;4975940;28;20401;-73
2022/10/13 09:44:45;;;;;;;6.77;4.03;;;21.70;99.90;;;;;;4973770;28;20427;-73
2022/10/13 09:47:20;;;;;;;4.80;3.67;;;22.20;99.90;;;;;;4980933;28;20443;-73
2022/10/13 09:49:58;;;;;;;6.33;4.53;;;22.40;99.90;;;;;;4993019;28;20427;-73
2022/10/13 09:52:24;;;;;;;5.17;3.47;;;22.80;99.90;;;;;;4992833;28;20983;-73
2022/10/13 09:54:59;;;;;;;6.57;4.03;;;23.40;99.90;;;;;;4992795;28;20404;-73
2022/10/13 09:57:38;;;;;;;6.17;4.43;;;24.80;98.70;;;;;;4983903;28;20705;-73
2022/10/13 10:00:20;;;;;;;4.93;3.70;;;26.30;85.70;;;;;;4973572;28;20467;-72
2022/10/13 10:03:12;;;;;;;4.77;3.80;;;27.10;74.70;;;;;;4973454;28;20392;-71
2022/10/13 10:05:54;;;;;;;10.30;3.93;;;27.50;69.50;;;;;;4973129;28;20401;-72
2022/10/13 10:08:40;;;;;;;5.83;3.83;;;28.00;65.30;;;;;;4973412;28;20495;-73
2022/10/13 10:11:12;;;;;;;4.13;3.33;;;28.20;61.80;;;;;;4991813;28;20519;-74
2022/10/13 10:13:38;;;;;;;5.87;3.53;;;28.20;59.90;;;;;;4992810;28;20412;-74
2022/10/13 10:16:19;;;;;;;6.80;4.20;;;27.60;59.60;;;;;;4991035;28;20462;-71
2022/10/13 10:18:51;;;;;;;12.50;4.10;;;26.90;60.30;;;;;;4973212;28;20232;-72
2022/10/13 10:21:30;;;;;;;3.50;3.20;;;26.70;62.60;;;;;;4973344;28;20429;-72
2022/10/13 10:24:01;;;;;;;8.03;4.50;;;26.80;63.30;;;;;;4973245;28;20397;-71
2022/10/13 10:26:51;;;;;;;9.83;4.47;;;26.60;61.70;;;;;;5005276;28;20424;-72
2022/10/13 10:29:38;;;;;;;6.83;3.53;;;26.20;63.00;;;;;;4980253;28;20451;-72
2022/10/13 10:32:14;;;;;;;5.90;4.70;;;25.60;63.70;;;;;;4972913;28;20499;-73
2022/10/13 10:35:12;;;;;;;6.10;3.83;;;24.90;66.80;;;;;;4972953;28;20861;-72
2022/10/13 10:37:43;;;;;;;4.10;3.10;;;24.40;71.40;;;;;;4983473;28;22045;-72
2022/10/13 10:40:39;;;;;;;7.50;4.57;;;23.70;76.10;;;;;;4973080;28;20460;-72
2022/10/13 10:43:29;;;;;;;5.53;4.00;;;23.30;87.70;;;;;;4971367;28;20413;-70
2022/10/13 10:45:57;;;;;;;5.83;3.63;;;22.90;94.10;;;;;;4972519;28;20417;-74
2022/10/13 10:48:27;;;;;;;4.07;3.03;;;22.90;97.40;;;;;;4990995;28;20965;-74
2022/10/13 10:50:53;;;;;;;6.90;4.47;;;22.90;97.80;;;;;;4991163;28;20929;-72
2022/10/13 10:53:44;;;;;;;4.53;3.23;;;23.10;96.60;;;;;;4990601;28;20466;-73
2022/10/13 10:56:28;;;;;;;3.90;3.40;;;23.00;93.40;;;;;;4990361;28;20936;-71
2022/10/13 10:59:09;;;;;;;7.40;4.73;;;22.70;95.60;;;;;;4972827;28;20555;-73
2022/10/13 11:01:41;;;;;;;6.97;3.03;;;22.30;96.00;;;;;;4972687;28;20423;-71
2022/10/13 11:04:40;;;;;;;11.50;7.20;;;22.10;98.70;;;;;;4972547;28;20483;-75
2022/10/13 11:07:28;;;;;;;9.30;4.70;;;21.70;99.90;;;;;;4986814;28;20441;-74
2022/10/13 11:09:56;;;;;;;6.90;3.27;;;21.60;99.90;;;;;;4996075;28;20940;-72
2022/10/13 11:12:21;;;;;;;4.73;3.83;;;21.40;99.90;;;;;;4991173;28;20420;-72
2022/10/13 11:14:53;;;;;;;3.70;2.93;;;21.00;99.90;;;;;;4990321;28;20490;-73
2022/10/13 11:17:38;;;;;;;6.90;3.37;;;20.60;99.90;;;;;;4976886;28;20190;-72
2022/10/13 11:20:18;;;;;;;5.43;2.90;;;20.30;99.90;;;;;;4972324;28;20496;-72
2022/10/13 11:22:59;;;;;;;4.93;4.40;;;20.00;99.90;;;;;;4972636;28;20423;-72
2022/10/13 11:25:38;;;;;;;7.23;3.43;;;19.70;99.90;;;;;;5003021;28;20425;-72
2022/10/13 11:28:22;;;;;;;6.60;3.30;;;19.50;99.90;;;;;;4989615;28;20801;-72
2022/10/13 11:30:53;;;;;;;3.67;3.27;;;19.40;99.90;;;;;;4991935;28;20408;-72
2022/10/13 11:33:31;;;;;;;4.60;3.57;;;19.30;99.90;;;;;;4991618;28;20424;-72
2022/10/13 11:35:56;;;;;;;7.37;3.40;;;19.20;99.90;;;;;;4972431;28;20413;-74
2022/10/13 11:38:33;;;;;;;8.27;3.50;;;19.10;99.90;;;;;;4978701;28;20551;-75
2022/10/13 11:41:15;;;;;;;8.97;4.63;;;19.10;99.90;;;;;;4993334;28;20169;-74
2022/10/13 11:43:53;;;;;;;6.47;4.33;;;18.90;99.90;;;;;;4978943;28;20536;-72
2022/10/13 11:47:03;;;;;;;7.43;4.90;;;18.80;99.90;;;;;;4980712;28;20486;-72
2022/10/13 11:49:54;;;;;;;10.80;4.33;;;18.60;99.90;;;;;;5001049;28;20499;-73
2022/10/13 11:52:34;;;;;;;7.60;4.10;;;18.50;99.90;;;;;;4995674;28;20432;-73
2022/10/13 11:55:05;;;;;;;15.77;4.70;;;18.50;99.90;;;;;;4994495;28;20451;-73
2022/10/13 11:57:31;;;;;;;5.67;4.20;;;18.50;99.90;;;;;;4981171;28;20487;-73
2022/10/13 11:59:57;;;;;;;6.10;3.90;;;18.50;99.90;;;;;;4988965;28;20428;-73
2022/10/13 12:02:25;;;;;;;7.60;3.47;;;18.50;99.90;;;;;;4975661;28;20436;-74
2022/10/13 12:05:27;;;;;;;8.50;4.57;;;18.60;99.90;;;;;;4979750;28;20494;-73
2022/10/13 12:07:57;;;;;;;9.53;4.40;;;18.60;99.90;;;;;;5015515;28;21041;-73
2022/10/13 12:10:34;;;;;;;6.70;3.70;;;18.50;99.90;;;;;;4985190;28;20425;-76
2022/10/13 12:13:00;;;;;;;5.40;4.30;;;18.70;99.90;;;;;;4974682;28;20404;-73
2022/10/13 12:15:39;;;;;;;4.63;4.17;;;18.70;99.90;;;;;;4983857;28;20443;-73
2022/10/13 12:18:42;;;;;;;5.00;3.60;;;18.80;99.90;;;;;;4994210;28;20546;-74
2022/10/13 12:21:19;;;;;;;5.60;3.60;;;19.00;99.90;;;;;;4997761;28;20452;-73
2022/10/13 12:23:47;;;;;;;5.20;3.90;;;19.00;99.90;;;;;;4996424;28;20490;-74
2022/10/13 12:26:18;;;;;;;7.53;3.87;;;19.20;99.90;;;;;;4992642;28;20473;-74
2022/10/13 12:29:00;;;;;;;4.10;3.67;;;19.00;99.90;;;;;;4996309;28;20526;-74
2022/10/13 12:31:39;;;;;;;5.77;3.60;;;19.00;99.90;;;;;;4995621;28;20421;-74
2022/10/13 12:34:26;;;;;;;5.90;3.97;;;19.00;99.90;;;;;;4996305;28;20416;-75
2022/10/13 12:36:57;;;;;;;5.13;3.73;;;19.10;99.90;;;;;;4988239;28;20428;-74
2022/10/13 12:39:24;;;;;;;4.17;3.10;;;19.30;99.90;;;;;;4979219;28;20524;-74
2022/10/13 12:41:50;;;;;;;6.03;3.40;;;19.40;99.90;;;;;;4975954;28;20446;-74
2022/10/13 12:44:20;;;;;;;5.40;3.23;;;19.50;99.90;;;;;;4976590;28;20412;-74
2022/10/13 12:46:58;;;;;;;6.37;3.67;;;19.50;99.90;;;;;;4981038;28;20431;-75
2022/10/13 12:49:26;;;;;;;4.70;3.40;;;19.70;99.90;;;;;;4995563;28;20439;-75
2022/10/13 12:52:02;;;;;;;4.90;3.37;;;19.70;99.90;;;;;;4996259;28;20424;-74
2022/10/13 12:54:31;;;;;;;6.27;3.73;;;19.60;99.90;;;;;;4994575;28;20921;-74
2022/10/13 12:56:59;;;;;;;5.67;3.53;;;19.50;99.90;;;;;;4995567;28;20487;-75